sensor_id;sensor_type;location;lat;lon;timestamp;pressure;altitude;pressure_sealevel;temperature;humidity
12781;BME280;6454;43.304;24.344;2023-02-11T00:00:15;102302.94;;;-7.44;75.97
12781;BME280;6454;43.304;24.344;2023-02-11T00:02:42;102431.44;;;-6.78;76.25
12781;BME280;6454;43.304;24.344;2023-02-11T00:05:11;102414.03;;;-6.81;75.89
12781;BME280;6454;43.304;24.344;2023-02-11T00:07:38;102412.81;;;-6.88;76.44
12781;BME280;6454;43.304;24.344;2023-02-11T00:10:05;102416.41;;;-6.89;76.24
12781;BME280;6454;43.304;24.344;2023-02-11T00:12:32;102400.94;;;-6.93;75.95
12781;BME280;6454;43.304;24.344;2023-02-11T00:14:59;102398.41;;;-6.95;76.12
12781;BME280;6454;43.304;24.344;2023-02-11T00:17:25;102314.69;;;-7.48;76.50
12781;BME280;6454;43.304;24.344;2023-02-11T00:19:52;102360.72;;;-7.41;76.47
12781;BME280;6454;43.304;24.344;2023-02-11T00:22:21;102402.38;;;-6.89;76.57
12781;BME280;6454;43.304;24.344;2023-02-11T00:24:48;102410.31;;;-6.89;76.18
12781;BME280;6454;43.304;24.344;2023-02-11T00:27:15;102410.91;;;-6.86;76.75
12781;BME280;6454;43.304;24.344;2023-02-11T00:29:41;102405.50;;;-6.84;77.10
12781;BME280;6454;43.304;24.344;2023-02-11T00:32:08;102405.16;;;-6.80;76.88
12781;BME280;6454;43.304;24.344;2023-02-11T00:34:36;102400.94;;;-6.82;77.60
12781;BME280;6454;43.304;24.344;2023-02-11T00:37:03;102400.34;;;-6.75;77.17
12781;BME280;6454;43.304;24.344;2023-02-11T00:39:32;102405.63;;;-6.75;77.04
12781;BME280;6454;43.304;24.344;2023-02-11T00:41:58;102403.59;;;-6.71;77.00
12781;BME280;6454;43.304;24.344;2023-02-11T00:44:25;102395.78;;;-6.73;76.65
12781;BME280;6454;43.304;24.344;2023-02-11T00:46:52;102401.31;;;-6.76;78.13
12781;BME280;6454;43.304;24.344;2023-02-11T00:49:19;102405.03;;;-6.67;78.79
12781;BME280;6454;43.304;24.344;2023-02-11T00:51:46;102424.59;;;-6.59;78.53
12781;BME280;6454;43.304;24.344;2023-02-11T00:54:12;102397.94;;;-6.56;77.95
12781;BME280;6454;43.304;24.344;2023-02-11T00:56:41;102359.09;;;-6.76;78.03
12781;BME280;6454;43.304;24.344;2023-02-11T00:59:07;102397.00;;;-6.43;78.55
12781;BME280;6454;43.304;24.344;2023-02-11T01:01:34;102396.25;;;-6.34;79.03
12781;BME280;6454;43.304;24.344;2023-02-11T01:04:01;102396.34;;;-6.25;78.87
12781;BME280;6454;43.304;24.344;2023-02-11T01:06:28;102387.81;;;-6.17;77.73
12781;BME280;6454;43.304;24.344;2023-02-11T01:08:55;102389.59;;;-6.18;77.60
12781;BME280;6454;43.304;24.344;2023-02-11T01:11:21;102395.63;;;-6.16;76.43
12781;BME280;6454;43.304;24.344;2023-02-11T01:13:50;102391.16;;;-6.15;76.18
12781;BME280;6454;43.304;24.344;2023-02-11T01:16:18;102384.78;;;-6.13;76.19
12781;BME280;6454;43.304;24.344;2023-02-11T01:18:45;102385.53;;;-6.11;75.81
12781;BME280;6454;43.304;24.344;2023-02-11T01:21:12;102382.53;;;-6.17;75.28
12781;BME280;6454;43.304;24.344;2023-02-11T01:23:39;102396.81;;;-6.20;75.17
12781;BME280;6454;43.304;24.344;2023-02-11T01:26:06;102391.91;;;-6.24;75.33
12781;BME280;6454;43.304;24.344;2023-02-11T01:28:32;102385.91;;;-6.26;75.24
12781;BME280;6454;43.304;24.344;2023-02-11T01:31:01;102401.06;;;-6.28;75.14
12781;BME280;6454;43.304;24.344;2023-02-11T01:33:28;102399.59;;;-6.32;74.85
12781;BME280;6454;43.304;24.344;2023-02-11T01:35:58;102388.47;;;-6.36;74.83
12781;BME280;6454;43.304;24.344;2023-02-11T01:38:25;102349.59;;;-6.67;74.85
12781;BME280;6454;43.304;24.344;2023-02-11T01:40:54;102391.94;;;-6.46;75.29
12781;BME280;6454;43.304;24.344;2023-02-11T01:43:22;102393.41;;;-6.53;76.59
12781;BME280;6454;43.304;24.344;2023-02-11T01:48:46;102402.13;;;-6.53;76.97
12781;BME280;6454;43.304;24.344;2023-02-11T01:51:18;102391.94;;;-6.46;77.88
12781;BME280;6454;43.304;24.344;2023-02-11T01:53:47;102398.19;;;-6.36;77.19
12781;BME280;6454;43.304;24.344;2023-02-11T01:56:34;102394.47;;;-6.34;76.32
12781;BME280;6454;43.304;24.344;2023-02-11T01:59:25;102386.66;;;-6.46;75.83
12781;BME280;6454;43.304;24.344;2023-02-11T02:01:57;102392.28;;;-6.40;75.73
12781;BME280;6454;43.304;24.344;2023-02-11T02:04:33;102398.19;;;-6.59;76.27
12781;BME280;6454;43.304;24.344;2023-02-11T02:07:05;102392.22;;;-6.61;76.89
12781;BME280;6454;43.304;24.344;2023-02-11T02:09:36;102394.34;;;-6.55;76.91
12781;BME280;6454;43.304;24.344;2023-02-11T02:12:04;102384.41;;;-6.51;76.05
12781;BME280;6454;43.304;24.344;2023-02-11T02:14:31;102395.66;;;-6.49;75.54
12781;BME280;6454;43.304;24.344;2023-02-11T02:16:58;102394.59;;;-6.46;75.34
12781;BME280;6454;43.304;24.344;2023-02-11T02:23:04;102388.72;;;-6.61;74.84
12781;BME280;6454;43.304;24.344;2023-02-11T02:26:00;102386.44;;;-6.66;75.44
12781;BME280;6454;43.304;24.344;2023-02-11T02:28:47;102390.41;;;-6.71;75.02
12781;BME280;6454;43.304;24.344;2023-02-11T02:31:52;102387.38;;;-6.78;74.92
12781;BME280;6454;43.304;24.344;2023-02-11T02:34:28;102361.97;;;-7.01;75.36
12781;BME280;6454;43.304;24.344;2023-02-11T02:37:03;102383.44;;;-6.83;76.04
12781;BME280;6454;43.304;24.344;2023-02-11T02:39:35;102382.97;;;-6.88;76.01
12781;BME280;6454;43.304;24.344;2023-02-11T02:42:04;102378.16;;;-6.94;75.73
12781;BME280;6454;43.304;24.344;2023-02-11T02:44:31;102377.06;;;-6.92;75.64
12781;BME280;6454;43.304;24.344;2023-02-11T02:46:59;102377.22;;;-6.93;76.08
12781;BME280;6454;43.304;24.344;2023-02-11T02:49:27;102375.88;;;-6.88;75.70
12781;BME280;6454;43.304;24.344;2023-02-11T02:52:20;102295.53;;;-7.39;75.21
12781;BME280;6454;43.304;24.344;2023-02-11T02:55:28;102397.97;;;-6.89;74.88
12781;BME280;6454;43.304;24.344;2023-02-11T03:00:54;102397.25;;;-6.91;74.19
12781;BME280;6454;43.304;24.344;2023-02-11T03:03:32;102393.03;;;-6.93;74.33
12781;BME280;6454;43.304;24.344;2023-02-11T03:06:07;102385.22;;;-6.95;74.17
12781;BME280;6454;43.304;24.344;2023-02-11T03:08:39;102358.72;;;-7.15;74.27
12781;BME280;6454;43.304;24.344;2023-02-11T03:11:09;102381.63;;;-7.05;74.64
12781;BME280;6454;43.304;24.344;2023-02-11T03:13:38;102384.25;;;-7.05;74.93
12781;BME280;6454;43.304;24.344;2023-02-11T03:16:08;102384.97;;;-7.03;74.45
12781;BME280;6454;43.304;24.344;2023-02-11T03:18:39;102383.31;;;-7.04;74.18
12781;BME280;6454;43.304;24.344;2023-02-11T03:21:10;102377.41;;;-7.07;74.22
12781;BME280;6454;43.304;24.344;2023-02-11T03:23:40;102373.13;;;-7.08;74.21
12781;BME280;6454;43.304;24.344;2023-02-11T03:26:13;102373.22;;;-7.21;74.41
12781;BME280;6454;43.304;24.344;2023-02-11T03:28:48;102367.00;;;-7.09;74.42
12781;BME280;6454;43.304;24.344;2023-02-11T03:31:20;102373.22;;;-7.10;74.37
12781;BME280;6454;43.304;24.344;2023-02-11T03:33:54;102371.66;;;-7.12;75.05
12781;BME280;6454;43.304;24.344;2023-02-11T03:36:30;102368.06;;;-7.11;74.80
12781;BME280;6454;43.304;24.344;2023-02-11T03:38:59;102361.09;;;-7.12;75.16
12781;BME280;6454;43.304;24.344;2023-02-11T03:41:28;102353.56;;;-7.17;75.10
12781;BME280;6454;43.304;24.344;2023-02-11T03:43:57;102357.25;;;-7.20;75.48
12781;BME280;6454;43.304;24.344;2023-02-11T03:46:29;102354.63;;;-7.20;75.75
12781;BME280;6454;43.304;24.344;2023-02-11T03:49:01;102361.09;;;-7.24;75.70
12781;BME280;6454;43.304;24.344;2023-02-11T03:51:31;102377.50;;;-7.31;76.33
12781;BME280;6454;43.304;24.344;2023-02-11T03:54:01;102292.50;;;-7.57;75.97
12781;BME280;6454;43.304;24.344;2023-02-11T03:56:32;102363.28;;;-7.06;75.53
12781;BME280;6454;43.304;24.344;2023-02-11T03:59:00;102360.66;;;-7.06;75.84
12781;BME280;6454;43.304;24.344;2023-02-11T04:01:27;102363.75;;;-7.01;75.59
12781;BME280;6454;43.304;24.344;2023-02-11T04:03:54;102364.63;;;-7.01;76.39
12781;BME280;6454;43.304;24.344;2023-02-11T04:06:21;102366.41;;;-6.90;76.30
12781;BME280;6454;43.304;24.344;2023-02-11T04:08:49;102355.97;;;-6.81;76.42
12781;BME280;6454;43.304;24.344;2023-02-11T04:11:16;102347.34;;;-6.72;75.84
12781;BME280;6454;43.304;24.344;2023-02-11T04:13:43;102350.22;;;-6.64;75.45
12781;BME280;6454;43.304;24.344;2023-02-11T04:16:10;102352.13;;;-6.66;75.19
12781;BME280;6454;43.304;24.344;2023-02-11T04:18:37;102155.59;;;-7.69;75.39
12781;BME280;6454;43.304;24.344;2023-02-11T04:21:04;102346.69;;;-6.53;74.95
12781;BME280;6454;43.304;24.344;2023-02-11T04:23:31;102355.09;;;-6.48;75.19
12781;BME280;6454;43.304;24.344;2023-02-11T04:25:59;102354.59;;;-6.42;74.95
12781;BME280;6454;43.304;24.344;2023-02-11T04:28:26;102354.00;;;-6.34;74.31
12781;BME280;6454;43.304;24.344;2023-02-11T04:30:54;102357.09;;;-6.29;73.64
12781;BME280;6454;43.304;24.344;2023-02-11T04:33:21;102350.59;;;-6.25;73.02
12781;BME280;6454;43.304;24.344;2023-02-11T04:35:48;102348.94;;;-6.26;73.00
12781;BME280;6454;43.304;24.344;2023-02-11T04:38:15;102339.78;;;-6.22;73.15
12781;BME280;6454;43.304;24.344;2023-02-11T04:40:42;102262.16;;;-6.74;72.58
12781;BME280;6454;43.304;24.344;2023-02-11T04:43:10;102336.06;;;-6.20;72.82
12781;BME280;6454;43.304;24.344;2023-02-11T04:45:37;102341.13;;;-6.28;72.78
12781;BME280;6454;43.304;24.344;2023-02-11T04:48:04;102333.44;;;-6.20;72.31
12781;BME280;6454;43.304;24.344;2023-02-11T04:50:31;102331.63;;;-6.19;72.06
12781;BME280;6454;43.304;24.344;2023-02-11T04:52:58;102328.59;;;-6.15;71.95
12781;BME280;6454;43.304;24.344;2023-02-11T04:55:24;102323.72;;;-6.19;71.95
12781;BME280;6454;43.304;24.344;2023-02-11T04:57:51;102317.28;;;-6.37;72.42
12781;BME280;6454;43.304;24.344;2023-02-11T05:00:21;102310.53;;;-6.30;72.51
12781;BME280;6454;43.304;24.344;2023-02-11T05:02:48;102311.13;;;-6.27;72.41
12781;BME280;6454;43.304;24.344;2023-02-11T05:05:15;102313.91;;;-6.28;72.21
12781;BME280;6454;43.304;24.344;2023-02-11T05:07:41;102307.63;;;-6.27;71.69
12781;BME280;6454;43.304;24.344;2023-02-11T05:10:08;102300.41;;;-6.25;71.66
12781;BME280;6454;43.304;24.344;2023-02-11T05:12:35;102309.09;;;-6.23;71.49
12781;BME280;6454;43.304;24.344;2023-02-11T05:15:03;102304.38;;;-6.20;71.01
12781;BME280;6454;43.304;24.344;2023-02-11T05:17:31;102306.53;;;-6.25;71.48
12781;BME280;6454;43.304;24.344;2023-02-11T05:22:43;102314.25;;;-6.33;72.08
12781;BME280;6454;43.304;24.344;2023-02-11T05:25:09;102301.50;;;-6.28;71.84
12781;BME280;6454;43.304;24.344;2023-02-11T05:27:36;102312.44;;;-6.21;71.60
12781;BME280;6454;43.304;24.344;2023-02-11T05:30:04;102308.56;;;-6.17;71.59
12781;BME280;6454;43.304;24.344;2023-02-11T05:32:32;102319.13;;;-6.17;71.67
12781;BME280;6454;43.304;24.344;2023-02-11T05:34:59;102316.09;;;-6.13;71.00
12781;BME280;6454;43.304;24.344;2023-02-11T05:37:26;102314.69;;;-6.17;71.14
12781;BME280;6454;43.304;24.344;2023-02-11T05:39:53;102319.72;;;-6.14;71.07
12781;BME280;6454;43.304;24.344;2023-02-11T05:42:20;102313.97;;;-6.19;71.32
12781;BME280;6454;43.304;24.344;2023-02-11T05:44:46;102317.34;;;-6.17;71.50
12781;BME280;6454;43.304;24.344;2023-02-11T05:47:13;102311.34;;;-6.19;71.79
12781;BME280;6454;43.304;24.344;2023-02-11T05:49:41;102295.97;;;-6.25;72.19
12781;BME280;6454;43.304;24.344;2023-02-11T05:52:08;102307.38;;;-6.24;72.17
12781;BME280;6454;43.304;24.344;2023-02-11T05:54:35;102245.03;;;-6.47;71.85
12781;BME280;6454;43.304;24.344;2023-02-11T05:57:02;102302.16;;;-6.04;71.68
12781;BME280;6454;43.304;24.344;2023-02-11T05:59:29;102312.81;;;-5.94;71.58
12781;BME280;6454;43.304;24.344;2023-02-11T06:01:56;102084.94;;;-7.22;71.34
12781;BME280;6454;43.304;24.344;2023-02-11T06:04:23;102311.59;;;-5.80;71.19
12781;BME280;6454;43.304;24.344;2023-02-11T06:06:51;102319.28;;;-5.77;71.25
12781;BME280;6454;43.304;24.344;2023-02-11T06:09:18;102316.53;;;-5.76;71.51
12781;BME280;6454;43.304;24.344;2023-02-11T06:11:45;102319.34;;;-5.68;71.57
12781;BME280;6454;43.304;24.344;2023-02-11T06:14:11;102312.16;;;-5.66;71.36
12781;BME280;6454;43.304;24.344;2023-02-11T06:16:38;102316.78;;;-5.58;71.10
12781;BME280;6454;43.304;24.344;2023-02-11T06:19:05;102315.88;;;-5.48;70.49
12781;BME280;6454;43.304;24.344;2023-02-11T06:21:32;102312.84;;;-5.43;70.54
12781;BME280;6454;43.304;24.344;2023-02-11T06:24:00;102309.97;;;-5.31;70.32
12781;BME280;6454;43.304;24.344;2023-02-11T06:26:27;102317.22;;;-5.33;70.01
12781;BME280;6454;43.304;24.344;2023-02-11T06:28:54;102316.72;;;-5.27;69.76
12781;BME280;6454;43.304;24.344;2023-02-11T06:31:21;102315.91;;;-5.17;70.14
12781;BME280;6454;43.304;24.344;2023-02-11T06:33:47;102325.56;;;-5.07;69.58
12781;BME280;6454;43.304;24.344;2023-02-11T06:36:16;102318.53;;;-4.97;69.64
12781;BME280;6454;43.304;24.344;2023-02-11T06:38:43;102321.06;;;-4.86;69.53
12781;BME280;6454;43.304;24.344;2023-02-11T06:41:12;102324.56;;;-4.76;69.02
12781;BME280;6454;43.304;24.344;2023-02-11T06:43:40;102311.50;;;-4.68;69.18
12781;BME280;6454;43.304;24.344;2023-02-11T06:46:07;102323.38;;;-4.62;68.79
12781;BME280;6454;43.304;24.344;2023-02-11T06:48:34;102324.50;;;-4.55;69.10
12781;BME280;6454;43.304;24.344;2023-02-11T06:51:02;102314.50;;;-4.42;69.03
12781;BME280;6454;43.304;24.344;2023-02-11T06:53:30;102321.09;;;-4.36;69.22
12781;BME280;6454;43.304;24.344;2023-02-11T06:56:01;102322.31;;;-4.31;69.19
12781;BME280;6454;43.304;24.344;2023-02-11T06:58:30;102324.28;;;-4.23;69.03
12781;BME280;6454;43.304;24.344;2023-02-11T07:00:57;102314.13;;;-4.18;69.60
12781;BME280;6454;43.304;24.344;2023-02-11T07:03:24;102281.47;;;-4.38;69.32
12781;BME280;6454;43.304;24.344;2023-02-11T07:05:51;102313.72;;;-3.95;69.16
12781;BME280;6454;43.304;24.344;2023-02-11T07:08:18;102318.59;;;-3.90;68.63
12781;BME280;6454;43.304;24.344;2023-02-11T07:10:45;102322.34;;;-3.83;67.51
12781;BME280;6454;43.304;24.344;2023-02-11T07:13:11;102317.91;;;-3.82;67.48
12781;BME280;6454;43.304;24.344;2023-02-11T07:15:40;102325.84;;;-3.82;67.02
12781;BME280;6454;43.304;24.344;2023-02-11T07:18:06;102282.19;;;-3.98;66.82
12781;BME280;6454;43.304;24.344;2023-02-11T07:20:33;102322.34;;;-3.73;66.85
12781;BME280;6454;43.304;24.344;2023-02-11T07:23:00;102323.34;;;-3.65;66.98
12781;BME280;6454;43.304;24.344;2023-02-11T07:25:44;102317.31;;;-3.57;67.17
12781;BME280;6454;43.304;24.344;2023-02-11T07:28:11;102310.91;;;-3.55;67.35
12781;BME280;6454;43.304;24.344;2023-02-11T07:30:40;102309.31;;;-3.38;67.42
12781;BME280;6454;43.304;24.344;2023-02-11T07:33:07;102307.31;;;-3.27;67.10
12781;BME280;6454;43.304;24.344;2023-02-11T07:35:34;102314.44;;;-3.17;67.28
12781;BME280;6454;43.304;24.344;2023-02-11T07:38:01;102316.09;;;-3.16;67.49
12781;BME280;6454;43.304;24.344;2023-02-11T07:40:29;102313.44;;;-3.16;67.56
12781;BME280;6454;43.304;24.344;2023-02-11T07:42:56;102324.06;;;-3.07;67.55
12781;BME280;6454;43.304;24.344;2023-02-11T07:45:23;101941.91;;;-5.74;67.61
12781;BME280;6454;43.304;24.344;2023-02-11T07:47:51;102306.06;;;-2.86;66.82
12781;BME280;6454;43.304;24.344;2023-02-11T07:50:18;102305.78;;;-2.83;67.06
12781;BME280;6454;43.304;24.344;2023-02-11T07:52:45;102303.81;;;-2.81;67.20
12781;BME280;6454;43.304;24.344;2023-02-11T07:55:12;102301.09;;;-2.71;67.18
12781;BME280;6454;43.304;24.344;2023-02-11T07:57:39;102300.22;;;-2.62;67.64
12781;BME280;6454;43.304;24.344;2023-02-11T08:00:07;102071.47;;;-3.94;67.69
12781;BME280;6454;43.304;24.344;2023-02-11T08:02:34;102300.31;;;-2.54;68.13
12781;BME280;6454;43.304;24.344;2023-02-11T08:05:02;102305.25;;;-2.41;68.03
12781;BME280;6454;43.304;24.344;2023-02-11T08:07:29;102301.72;;;-2.32;67.68
12781;BME280;6454;43.304;24.344;2023-02-11T08:09:56;102300.81;;;-2.23;67.93
12781;BME280;6454;43.304;24.344;2023-02-11T08:12:23;102304.53;;;-2.16;67.66
12781;BME280;6454;43.304;24.344;2023-02-11T08:14:50;102302.63;;;-2.06;67.10
12781;BME280;6454;43.304;24.344;2023-02-11T08:17:17;102295.88;;;-2.01;66.75
12781;BME280;6454;43.304;24.344;2023-02-11T08:19:44;102301.50;;;-1.86;66.54
12781;BME280;6454;43.304;24.344;2023-02-11T08:22:17;102292.91;;;-1.80;66.81
12781;BME280;6454;43.304;24.344;2023-02-11T08:24:43;102296.75;;;-1.74;67.01
12781;BME280;6454;43.304;24.344;2023-02-11T08:27:10;102294.72;;;-1.63;66.86
12781;BME280;6454;43.304;24.344;2023-02-11T08:29:37;102268.88;;;-1.70;66.36
12781;BME280;6454;43.304;24.344;2023-02-11T08:32:04;102288.81;;;-1.49;66.62
12781;BME280;6454;43.304;24.344;2023-02-11T08:34:31;102286.88;;;-1.39;66.63
12781;BME280;6454;43.304;24.344;2023-02-11T08:36:58;102284.78;;;-1.27;66.11
12781;BME280;6454;43.304;24.344;2023-02-11T08:39:26;102291.69;;;-1.16;66.11
12781;BME280;6454;43.304;24.344;2023-02-11T08:41:54;102286.41;;;-1.08;66.24
12781;BME280;6454;43.304;24.344;2023-02-11T08:44:22;102283.63;;;-0.99;65.79
12781;BME280;6454;43.304;24.344;2023-02-11T08:46:50;102226.22;;;-1.27;65.10
12781;BME280;6454;43.304;24.344;2023-02-11T08:49:17;102175.16;;;-1.56;65.32
12781;BME280;6454;43.304;24.344;2023-02-11T08:51:45;102278.44;;;-0.67;64.87
12781;BME280;6454;43.304;24.344;2023-02-11T08:54:13;102157.38;;;-1.56;63.69
12781;BME280;6454;43.304;24.344;2023-02-11T08:56:41;102276.31;;;-0.47;64.31
12781;BME280;6454;43.304;24.344;2023-02-11T08:59:12;102279.34;;;-0.34;63.46
12781;BME280;6454;43.304;24.344;2023-02-11T09:01:41;102262.72;;;-0.28;63.06
12781;BME280;6454;43.304;24.344;2023-02-11T09:04:08;102280.72;;;-0.14;63.41
12781;BME280;6454;43.304;24.344;2023-02-11T09:06:35;101985.63;;;-1.92;63.92
12781;BME280;6454;43.304;24.344;2023-02-11T09:09:02;102189.69;;;-0.43;62.43
12781;BME280;6454;43.304;24.344;2023-02-11T09:11:32;102268.25;;;0.19;62.69
12781;BME280;6454;43.304;24.344;2023-02-11T09:14:01;102265.22;;;0.30;61.61
12781;BME280;6454;43.304;24.344;2023-02-11T09:16:32;102210.72;;;-0.08;59.92
12781;BME280;6454;43.304;24.344;2023-02-11T09:19:01;102273.72;;;0.50;60.16
12781;BME280;6454;43.304;24.344;2023-02-11T09:21:30;102240.50;;;0.52;58.94
12781;BME280;6454;43.304;24.344;2023-02-11T09:23:57;102260.16;;;0.76;59.15
12781;BME280;6454;43.304;24.344;2023-02-11T09:26:26;102261.97;;;0.83;56.65
12781;BME280;6454;43.304;24.344;2023-02-11T09:28:53;102267.31;;;0.91;56.31
12781;BME280;6454;43.304;24.344;2023-02-11T09:31:23;102139.94;;;0.29;56.32
12781;BME280;6454;43.304;24.344;2023-02-11T09:33:52;102255.84;;;1.13;56.89
12781;BME280;6454;43.304;24.344;2023-02-11T09:36:21;102268.00;;;1.24;54.68
12781;BME280;6454;43.304;24.344;2023-02-11T09:38:50;102157.69;;;0.69;53.35
12781;BME280;6454;43.304;24.344;2023-02-11T09:41:30;102234.34;;;1.38;52.48
12781;BME280;6454;43.304;24.344;2023-02-11T09:44:01;102083.31;;;0.49;52.23
12781;BME280;6454;43.304;24.344;2023-02-11T09:46:34;102229.06;;;1.52;52.71
12781;BME280;6454;43.304;24.344;2023-02-11T09:49:03;102141.78;;;1.06;52.71
12781;BME280;6454;43.304;24.344;2023-02-11T09:51:36;102224.84;;;1.58;52.26
12781;BME280;6454;43.304;24.344;2023-02-11T09:54:15;102219.22;;;1.75;51.10
12781;BME280;6454;43.304;24.344;2023-02-11T09:56:45;102214.72;;;1.76;50.84
12781;BME280;6454;43.304;24.344;2023-02-11T09:59:13;102211.63;;;1.87;51.65
12781;BME280;6454;43.304;24.344;2023-02-11T10:01:49;102203.69;;;1.93;51.12
12781;BME280;6454;43.304;24.344;2023-02-11T10:04:25;102196.88;;;1.91;50.73
12781;BME280;6454;43.304;24.344;2023-02-11T10:07:01;102180.06;;;1.97;50.25
12781;BME280;6454;43.304;24.344;2023-02-11T10:09:49;102182.53;;;2.07;49.43
12781;BME280;6454;43.304;24.344;2023-02-11T10:12:33;102168.00;;;2.01;50.36
12781;BME280;6454;43.304;24.344;2023-02-11T10:15:17;102164.59;;;2.07;49.34
12781;BME280;6454;43.304;24.344;2023-02-11T10:18:06;102158.31;;;2.15;51.40
12781;BME280;6454;43.304;24.344;2023-02-11T10:20:38;102085.56;;;1.82;48.62
12781;BME280;6454;43.304;24.344;2023-02-11T10:23:14;102124.91;;;1.96;47.35
12781;BME280;6454;43.304;24.344;2023-02-11T10:25:43;102156.34;;;2.31;48.56
12781;BME280;6454;43.304;24.344;2023-02-11T10:28:14;102143.78;;;2.32;47.80
12781;BME280;6454;43.304;24.344;2023-02-11T10:30:42;102141.53;;;2.35;47.39
12781;BME280;6454;43.304;24.344;2023-02-11T10:33:19;102129.44;;;2.39;48.34
12781;BME280;6454;43.304;24.344;2023-02-11T10:35:48;102131.19;;;2.32;47.60
12781;BME280;6454;43.304;24.344;2023-02-11T10:38:15;102113.38;;;2.39;48.12
12781;BME280;6454;43.304;24.344;2023-02-11T10:40:42;102117.06;;;2.53;48.08
12781;BME280;6454;43.304;24.344;2023-02-11T10:43:12;102116.50;;;2.57;47.85
12781;BME280;6454;43.304;24.344;2023-02-11T10:45:42;102053.66;;;2.24;48.65
12781;BME280;6454;43.304;24.344;2023-02-11T10:48:37;102106.59;;;2.73;47.70
12781;BME280;6454;43.304;24.344;2023-02-11T10:51:14;102096.41;;;2.83;47.60
12781;BME280;6454;43.304;24.344;2023-02-11T10:53:41;102095.94;;;2.94;46.73
12781;BME280;6454;43.304;24.344;2023-02-11T10:56:10;102097.41;;;2.96;47.84
12781;BME280;6454;43.304;24.344;2023-02-11T10:58:41;102091.91;;;3.04;47.91
12781;BME280;6454;43.304;24.344;2023-02-11T11:01:10;102087.28;;;3.13;47.52
12781;BME280;6454;43.304;24.344;2023-02-11T11:03:46;102074.59;;;3.21;47.89
12781;BME280;6454;43.304;24.344;2023-02-11T11:06:14;102079.13;;;3.21;46.56
12781;BME280;6454;43.304;24.344;2023-02-11T11:08:43;102077.44;;;3.20;47.92
12781;BME280;6454;43.304;24.344;2023-02-11T11:11:12;102079.53;;;3.24;47.97
12781;BME280;6454;43.304;24.344;2023-02-11T11:13:40;101923.13;;;2.12;49.01
12781;BME280;6454;43.304;24.344;2023-02-11T11:16:21;102072.53;;;3.23;48.97
12781;BME280;6454;43.304;24.344;2023-02-11T11:18:52;102058.56;;;3.28;48.89
12781;BME280;6454;43.304;24.344;2023-02-11T11:21:21;102063.59;;;3.38;50.01
12781;BME280;6454;43.304;24.344;2023-02-11T11:23:55;102057.00;;;3.40;50.36
12781;BME280;6454;43.304;24.344;2023-02-11T11:26:23;102051.84;;;3.39;50.97
12781;BME280;6454;43.304;24.344;2023-02-11T11:28:57;102042.25;;;3.51;49.50
12781;BME280;6454;43.304;24.344;2023-02-11T11:31:30;102038.75;;;3.57;50.13
12781;BME280;6454;43.304;24.344;2023-02-11T11:34:00;102038.75;;;3.57;49.39
12781;BME280;6454;43.304;24.344;2023-02-11T11:36:33;102036.66;;;3.52;50.01
12781;BME280;6454;43.304;24.344;2023-02-11T11:39:09;102031.56;;;3.57;50.06
12781;BME280;6454;43.304;24.344;2023-02-11T11:41:48;101912.31;;;2.83;51.31
12781;BME280;6454;43.304;24.344;2023-02-11T11:44:22;101869.28;;;2.64;50.93
12781;BME280;6454;43.304;24.344;2023-02-11T11:47:03;101978.28;;;3.27;51.64
12781;BME280;6454;43.304;24.344;2023-02-11T11:49:36;102012.13;;;3.55;50.38
12781;BME280;6454;43.304;24.344;2023-02-11T11:52:16;102017.13;;;3.58;51.96
12781;BME280;6454;43.304;24.344;2023-02-11T11:54:50;102004.47;;;3.52;52.12
12781;BME280;6454;43.304;24.344;2023-02-11T11:57:22;101998.69;;;3.49;53.03
12781;BME280;6454;43.304;24.344;2023-02-11T11:59:51;102004.94;;;3.56;53.77
12781;BME280;6454;43.304;24.344;2023-02-11T12:02:43;102004.34;;;3.60;53.05
12781;BME280;6454;43.304;24.344;2023-02-11T12:05:24;101998.38;;;3.65;53.39
12781;BME280;6454;43.304;24.344;2023-02-11T12:08:03;101996.75;;;3.70;54.31
12781;BME280;6454;43.304;24.344;2023-02-11T12:10:45;101988.69;;;3.64;50.83
12781;BME280;6454;43.304;24.344;2023-02-11T12:13:30;102008.03;;;3.59;52.20
12781;BME280;6454;43.304;24.344;2023-02-11T12:16:08;101982.63;;;3.55;52.83
12781;BME280;6454;43.304;24.344;2023-02-11T12:18:55;101784.66;;;2.48;53.57
12781;BME280;6454;43.304;24.344;2023-02-11T12:21:39;101972.34;;;3.59;53.14
12781;BME280;6454;43.304;24.344;2023-02-11T12:24:25;101964.53;;;3.64;53.07
12781;BME280;6454;43.304;24.344;2023-02-11T12:26:59;101855.00;;;2.84;53.66
12781;BME280;6454;43.304;24.344;2023-02-11T12:29:32;101957.69;;;3.61;54.03
12781;BME280;6454;43.304;24.344;2023-02-11T12:32:16;101950.88;;;3.59;53.47
12781;BME280;6454;43.304;24.344;2023-02-11T12:35:10;101860.69;;;2.96;53.49
12781;BME280;6454;43.304;24.344;2023-02-11T12:38:07;101850.72;;;2.90;53.90
12781;BME280;6454;43.304;24.344;2023-02-11T12:40:42;101938.81;;;3.48;54.02
12781;BME280;6454;43.304;24.344;2023-02-11T12:43:19;101939.84;;;3.47;53.68
12781;BME280;6454;43.304;24.344;2023-02-11T12:46:07;101938.75;;;3.42;53.41
12781;BME280;6454;43.304;24.344;2023-02-11T12:51:59;101930.06;;;3.33;54.71
12781;BME280;6454;43.304;24.344;2023-02-11T12:54:31;101930.69;;;3.35;54.61
12781;BME280;6454;43.304;24.344;2023-02-11T12:57:05;101872.66;;;3.00;54.68
12781;BME280;6454;43.304;24.344;2023-02-11T12:59:42;101921.63;;;3.36;54.56
12781;BME280;6454;43.304;24.344;2023-02-11T13:02:20;101914.59;;;3.35;55.12
12781;BME280;6454;43.304;24.344;2023-02-11T13:04:52;101922.63;;;3.35;55.49
12781;BME280;6454;43.304;24.344;2023-02-11T13:07:23;101904.72;;;3.42;54.59
12781;BME280;6454;43.304;24.344;2023-02-11T13:09:57;101911.59;;;3.51;55.14
12781;BME280;6454;43.304;24.344;2023-02-11T13:12:28;101910.81;;;3.57;55.67
12781;BME280;6454;43.304;24.344;2023-02-11T13:15:17;101897.81;;;3.61;54.21
12781;BME280;6454;43.304;24.344;2023-02-11T13:17:52;101893.69;;;3.58;54.21
12781;BME280;6454;43.304;24.344;2023-02-11T13:20:31;101886.25;;;3.54;54.57
12781;BME280;6454;43.304;24.344;2023-02-11T13:23:09;101905.28;;;3.65;54.63
12781;BME280;6454;43.304;24.344;2023-02-11T13:25:42;101890.44;;;3.69;54.00